createdAt,value
2019-04-29T00:00:54.702Z,56.89
2019-04-29T00:03:25.021Z,57.01
2019-04-29T00:05:54.885Z,57.19
2019-04-29T00:08:24.710Z,57.07
2019-04-29T00:10:54.692Z,56.96
2019-04-29T00:13:24.617Z,56.99
2019-04-29T00:16:06.386Z,57.03
2019-04-29T00:18:49.388Z,56.97
2019-04-29T00:21:20.167Z,57.09
2019-04-29T00:24:02.914Z,57.17
2019-04-29T00:26:21.305Z,57.28
2019-04-29T00:28:56.025Z,57.52
2019-04-29T00:31:26.486Z,57.67
2019-04-29T00:33:56.739Z,57.62
2019-04-29T00:36:30.642Z,57.71
2019-04-29T00:39:05.160Z,57.86
2019-04-29T00:41:54.963Z,57.75
2019-04-29T00:44:25.923Z,57.73
2019-04-29T00:46:55.577Z,57.84
2019-04-29T00:49:26.059Z,57.69
2019-04-29T00:51:55.606Z,57.75
2019-04-29T00:54:42.622Z,57.76
2019-04-29T00:57:12.432Z,57.99
2019-04-29T00:59:42.550Z,58.01
2019-04-29T01:02:12.256Z,57.77
2019-04-29T01:04:41.751Z,57.93
2019-04-29T01:07:11.586Z,58.13
2019-04-29T01:09:41.723Z,58.01
2019-04-29T01:12:11.407Z,58.01
2019-04-29T01:14:41.231Z,58.03
2019-04-29T01:17:11.131Z,58.11
2019-04-29T01:19:41.317Z,58.17
2019-04-29T01:22:10.865Z,58.18
2019-04-29T01:24:40.403Z,58.24
2019-04-29T01:27:22.469Z,57.94
2019-04-29T01:29:52.340Z,58.29
2019-04-29T01:32:25.095Z,58.40
2019-04-29T01:34:55.698Z,58.46
2019-04-29T01:37:42.398Z,58.77
2019-04-29T01:40:30.385Z,58.76
2019-04-29T01:43:00.455Z,58.89
2019-04-29T01:45:31.242Z,58.96
2019-04-29T01:48:01.229Z,59.03
2019-04-29T01:50:33.148Z,59.08
2019-04-29T01:53:02.924Z,59.01
2019-04-29T01:55:32.546Z,59.09
2019-04-29T01:58:03.203Z,59.21
2019-04-29T02:00:35.423Z,59.24
2019-04-29T02:03:05.103Z,59.33
2019-04-29T02:05:34.599Z,59.44
2019-04-29T02:08:04.467Z,59.35
2019-04-29T02:10:35.000Z,59.43
2019-04-29T02:13:04.679Z,59.66
2019-04-29T02:15:34.751Z,59.69
2019-04-29T02:18:04.215Z,59.69
2019-04-29T02:20:33.924Z,59.80
2019-04-29T02:23:40.419Z,59.76
2019-04-29T02:26:09.980Z,59.74
2019-04-29T02:28:39.634Z,59.92
2019-04-29T02:31:26.565Z,60.11
2019-04-29T02:33:56.183Z,60.13
2019-04-29T02:36:29.704Z,60.12
2019-04-29T02:39:08.666Z,60.09
2019-04-29T02:41:45.546Z,60.08
2019-04-29T02:44:15.281Z,60.28
2019-04-29T02:46:44.900Z,60.42
2019-04-29T02:49:15.870Z,60.35
2019-04-29T02:51:51.971Z,60.36
2019-04-29T02:54:22.900Z,60.39
2019-04-29T02:57:00.882Z,60.28
2019-04-29T02:59:34.693Z,60.34
2019-04-29T03:02:29.565Z,60.38
2019-04-29T03:05:16.861Z,60.34
2019-04-29T03:07:46.890Z,60.50
2019-04-29T03:10:17.959Z,60.52
2019-04-29T03:12:47.571Z,60.66
2019-04-29T03:15:32.315Z,60.82
2019-04-29T03:18:02.514Z,61.14
2019-04-29T03:20:41.770Z,61.19
2019-04-29T03:23:16.678Z,61.33
2019-04-29T03:25:46.716Z,61.33
2019-04-29T03:28:17.940Z,61.28
2019-04-29T03:30:47.603Z,61.64
2019-04-29T03:33:17.430Z,62.13
2019-04-29T03:35:47.356Z,62.24
2019-04-29T03:38:16.939Z,62.51
2019-04-29T03:40:46.765Z,62.64
2019-04-29T03:43:16.612Z,62.64
2019-04-29T03:45:46.144Z,62.88
2019-04-29T03:48:15.858Z,62.88
2019-04-29T03:50:45.466Z,63.21
2019-04-29T03:53:15.307Z,63.21
2019-04-29T03:55:45.007Z,62.76
2019-04-29T03:58:17.083Z,62.76
2019-04-29T04:00:51.567Z,63.13
2019-04-29T04:03:41.429Z,63.09
2019-04-29T04:06:23.469Z,63.09
2019-04-29T04:09:06.143Z,63.19
2019-04-29T04:11:28.537Z,63.22
2019-04-29T04:13:58.235Z,62.79
2019-04-29T04:16:46.710Z,62.82
2019-04-29T04:19:16.652Z,62.72
2019-04-29T04:21:46.549Z,62.23
2019-04-29T04:24:16.049Z,61.52
2019-04-29T04:26:45.574Z,61.43
2019-04-29T04:29:15.140Z,61.43
2019-04-29T04:31:44.664Z,60.97
2019-04-29T04:34:14.786Z,60.81
2019-04-29T04:36:44.499Z,60.78
2019-04-29T04:39:16.187Z,60.64
2019-04-29T04:41:45.711Z,60.45
2019-04-29T04:44:15.444Z,59.84
2019-04-29T04:46:48.089Z,59.53
2019-04-29T04:49:19.157Z,59.62
2019-04-29T04:51:49.150Z,58.73
2019-04-29T04:54:18.996Z,57.82
2019-04-29T04:56:48.534Z,57.75
2019-04-29T04:59:18.332Z,57.75
2019-04-29T05:01:48.208Z,58.00
2019-04-29T05:04:18.121Z,58.00
2019-04-29T05:06:48.005Z,56.96
2019-04-29T05:09:17.486Z,56.58
2019-04-29T05:11:47.072Z,55.48
2019-04-29T05:14:17.118Z,55.48
2019-04-29T05:16:46.718Z,54.53
2019-04-29T05:19:16.353Z,54.53
2019-04-29T05:21:48.143Z,54.36
2019-04-29T05:24:19.566Z,54.28
2019-04-29T05:26:49.119Z,53.05
2019-04-29T05:29:19.099Z,53.05
2019-04-29T05:31:48.678Z,52.80
2019-04-29T05:34:19.455Z,51.87
2019-04-29T05:37:26.153Z,51.96
2019-04-29T05:39:57.372Z,51.32
2019-04-29T05:42:27.393Z,50.91
2019-04-29T05:45:18.836Z,51.25
2019-04-29T05:47:57.110Z,51.05
2019-04-29T05:50:47.575Z,50.39
2019-04-29T05:53:35.655Z,50.67
2019-04-29T05:56:05.375Z,51.03
2019-04-29T05:58:37.792Z,49.78
2019-04-29T06:01:12.533Z,49.62
2019-04-29T06:03:44.302Z,49.18
2019-04-29T06:06:13.212Z,49.18
2019-04-29T06:08:45.972Z,48.44
2019-04-29T06:11:15.484Z,48.10
2019-04-29T06:13:45.232Z,46.99
2019-04-29T06:16:15.951Z,47.73
2019-04-29T06:18:46.692Z,46.71
2019-04-29T06:21:16.889Z,45.85
2019-04-29T06:23:46.561Z,46.35
2019-04-29T06:26:16.082Z,46.19
2019-04-29T06:28:45.669Z,46.19
2019-04-29T06:31:16.092Z,44.47
2019-04-29T06:33:45.645Z,43.44
2019-04-29T06:36:15.874Z,42.98
2019-04-29T06:38:45.385Z,43.14
2019-04-29T06:41:15.017Z,43.30
2019-04-29T06:43:46.826Z,43.37
2019-04-29T06:46:16.360Z,43.37
2019-04-29T06:48:46.184Z,43.72
2019-04-29T06:51:15.928Z,43.89
2019-04-29T06:53:47.791Z,42.87
2019-04-29T06:56:17.189Z,43.55
2019-04-29T06:58:49.067Z,42.04
2019-04-29T07:01:18.944Z,41.42
2019-04-29T07:03:48.887Z,41.82
2019-04-29T07:06:19.046Z,41.27
2019-04-29T07:08:48.564Z,41.44
2019-04-29T07:11:19.175Z,41.48
2019-04-29T07:13:49.054Z,40.79
2019-04-29T07:16:21.903Z,41.09
2019-04-29T07:18:53.540Z,40.76
2019-04-29T07:21:23.422Z,41.13
2019-04-29T07:23:53.207Z,40.19
2019-04-29T07:26:22.703Z,40.10
2019-04-29T07:28:53.791Z,39.19
2019-04-29T07:31:23.477Z,40.18
2019-04-29T07:33:57.897Z,40.24
2019-04-29T07:36:25.855Z,40.12
2019-04-29T07:38:56.700Z,39.77
2019-04-29T07:41:26.690Z,39.43
2019-04-29T07:43:56.376Z,39.33
2019-04-29T07:46:56.102Z,39.18
2019-04-29T07:49:17.242Z,38.24
2019-04-29T07:51:48.077Z,37.97
2019-04-29T07:54:17.818Z,38.16
2019-04-29T07:56:49.586Z,37.59
2019-04-29T07:59:19.067Z,37.86
2019-04-29T08:01:50.209Z,37.55
2019-04-29T08:04:19.846Z,37.65
2019-04-29T08:06:50.247Z,37.46
2019-04-29T08:09:20.602Z,37.15
2019-04-29T08:11:54.273Z,34.28
2019-04-29T08:14:25.957Z,32.80
2019-04-29T08:16:55.780Z,31.75
2019-04-29T08:19:29.500Z,29.66
2019-04-29T08:21:59.763Z,28.65
2019-04-29T08:24:29.509Z,29.40
2019-04-29T08:26:59.680Z,29.71
2019-04-29T08:29:30.704Z,30.71
2019-04-29T08:32:03.502Z,30.50
2019-04-29T08:34:36.313Z,30.35
2019-04-29T08:37:09.257Z,29.88
2019-04-29T08:39:38.897Z,30.35
2019-04-29T08:42:11.796Z,30.57
2019-04-29T08:44:59.697Z,30.54
2019-04-29T08:47:32.189Z,30.46
2019-04-29T08:50:02.034Z,30.58
2019-04-29T08:52:33.758Z,31.11
2019-04-29T08:55:03.874Z,31.12
2019-04-29T08:57:38.468Z,31.57
2019-04-29T09:00:10.545Z,32.12
2019-04-29T09:02:41.556Z,32.15
2019-04-29T09:05:14.511Z,32.17
2019-04-29T09:07:45.592Z,32.60
2019-04-29T09:10:15.456Z,32.88
2019-04-29T09:12:49.506Z,33.13
2019-04-29T09:15:19.422Z,33.49
2019-04-29T09:17:48.842Z,33.34
2019-04-29T09:20:19.415Z,33.63
2019-04-29T09:22:54.370Z,33.73
2019-04-29T09:25:41.808Z,34.08
2019-04-29T09:28:16.239Z,33.86
2019-04-29T09:30:43.997Z,34.64
2019-04-29T09:33:14.331Z,34.47
2019-04-29T09:35:44.263Z,34.50
2019-04-29T09:38:14.268Z,34.70
2019-04-29T09:40:54.579Z,34.79
2019-04-29T09:43:32.897Z,34.61
2019-04-29T09:46:06.215Z,34.49
2019-04-29T09:48:36.233Z,34.40
2019-04-29T09:51:17.342Z,34.23
2019-04-29T09:53:39.086Z,34.55
2019-04-29T09:56:08.867Z,34.56
2019-04-29T09:58:44.292Z,34.44
2019-04-29T10:01:35.295Z,34.28
2019-04-29T10:04:27.870Z,34.20
2019-04-29T10:06:59.202Z,34.62
2019-04-29T10:09:32.462Z,34.43
2019-04-29T10:12:04.138Z,34.22
2019-04-29T10:14:39.232Z,34.19
2019-04-29T10:17:31.433Z,33.84
2019-04-29T10:20:08.178Z,34.03
2019-04-29T10:22:38.233Z,33.88
2019-04-29T10:25:08.399Z,33.69
2019-04-29T10:27:38.342Z,33.87
2019-04-29T10:30:10.249Z,33.66
2019-04-29T10:32:42.370Z,33.75
2019-04-29T10:35:13.462Z,33.46
2019-04-29T10:37:43.193Z,33.59
2019-04-29T10:40:32.314Z,33.29
2019-04-29T10:43:17.253Z,33.77
2019-04-29T10:46:05.199Z,33.83
2019-04-29T10:48:40.406Z,33.81
2019-04-29T10:51:11.767Z,33.70
2019-04-29T10:53:41.311Z,33.61
2019-04-29T10:56:11.376Z,33.64
2019-04-29T10:58:43.249Z,33.80
2019-04-29T11:02:13.642Z,33.84
2019-04-29T11:04:40.005Z,33.77
2019-04-29T11:07:43.523Z,33.82
2019-04-29T11:10:25.813Z,33.70
2019-04-29T11:12:55.718Z,33.66
2019-04-29T11:15:32.643Z,33.27
2019-04-29T11:18:03.955Z,33.41
2019-04-29T11:20:36.104Z,33.34
2019-04-29T11:23:28.393Z,33.23
2019-04-29T11:26:15.524Z,33.24
2019-04-29T11:28:51.090Z,33.42
2019-04-29T11:31:19.482Z,33.27
2019-04-29T11:34:15.996Z,32.91
2019-04-29T11:36:47.122Z,33.13
2019-04-29T11:39:24.610Z,33.04
2019-04-29T11:41:59.660Z,32.67
2019-04-29T11:44:31.761Z,33.06
2019-04-29T11:47:02.013Z,33.26
2019-04-29T11:49:40.618Z,33.16
2019-04-29T11:52:10.840Z,33.02
2019-04-29T11:54:41.013Z,33.07
2019-04-29T11:57:17.069Z,32.88
2019-04-29T12:00:10.268Z,33.13
2019-04-29T12:02:52.610Z,33.40
2019-04-29T12:05:44.771Z,33.47
2019-04-29T12:08:16.951Z,33.52
2019-04-29T12:10:48.605Z,33.41
2019-04-29T12:13:28.181Z,33.48
2019-04-29T12:16:04.464Z,33.47
2019-04-29T12:18:43.745Z,33.67
2019-04-29T12:21:33.659Z,33.97
2019-04-29T12:24:05.944Z,33.83
2019-04-29T12:26:42.871Z,33.82
2019-04-29T12:29:13.786Z,33.47
2019-04-29T12:32:04.899Z,33.85
2019-04-29T12:34:44.142Z,33.59
2019-04-29T12:37:34.211Z,34.02
2019-04-29T12:40:33.443Z,34.16
2019-04-29T12:43:20.230Z,34.27
2019-04-29T12:46:13.021Z,34.37
2019-04-29T12:48:42.642Z,34.35
2019-04-29T12:51:12.310Z,33.94
2019-04-29T12:53:44.721Z,34.18
2019-04-29T12:56:13.299Z,34.00
2019-04-29T12:58:42.894Z,34.06
2019-04-29T13:01:49.769Z,34.04
2019-04-29T13:04:05.886Z,34.17
2019-04-29T13:06:53.995Z,34.27
2019-04-29T13:09:34.914Z,33.97
2019-04-29T13:12:18.981Z,34.11
2019-04-29T13:14:39.773Z,33.91
2019-04-29T13:17:30.476Z,34.03
2019-04-29T13:20:11.811Z,34.06
2019-04-29T13:22:39.284Z,34.02
2019-04-29T13:25:09.938Z,34.02
2019-04-29T13:27:39.571Z,34.10
2019-04-29T13:30:16.118Z,33.87
2019-04-29T13:32:45.977Z,33.79
2019-04-29T13:35:16.808Z,34.03
2019-04-29T13:37:46.932Z,33.84
2019-04-29T13:40:18.667Z,33.94
2019-04-29T13:42:50.717Z,33.83
2019-04-29T13:45:26.271Z,34.02
2019-04-29T13:48:33.133Z,33.88
2019-04-29T13:51:06.489Z,33.93
2019-04-29T13:53:36.704Z,33.79
2019-04-29T13:56:11.855Z,33.91
2019-04-29T13:58:38.103Z,33.79
2019-04-29T14:01:22.600Z,33.83
2019-04-29T14:03:56.869Z,33.98
2019-04-29T14:06:30.699Z,33.98
2019-04-29T14:09:03.966Z,34.08
2019-04-29T14:11:32.855Z,34.08
2019-04-29T14:14:02.475Z,33.78
2019-04-29T14:16:32.239Z,33.99
2019-04-29T14:19:01.804Z,33.87
2019-04-29T14:21:31.907Z,34.05
2019-04-29T14:24:01.742Z,33.82
2019-04-29T14:26:31.495Z,33.74
2019-04-29T14:29:01.238Z,33.87
2019-04-29T14:31:31.675Z,33.90
2019-04-29T14:34:06.947Z,33.92
2019-04-29T14:36:36.843Z,33.99
2019-04-29T14:39:13.115Z,33.86
2019-04-29T14:41:44.092Z,33.74
2019-04-29T14:44:41.665Z,33.56
2019-04-29T14:47:33.866Z,33.59
2019-04-29T14:50:05.410Z,33.63
2019-04-29T14:52:37.855Z,33.77
2019-04-29T14:55:08.743Z,33.56
2019-04-29T14:57:41.263Z,33.21
2019-04-29T15:00:21.537Z,34.62
2019-04-29T15:02:51.270Z,36.41
2019-04-29T15:05:21.036Z,37.24
2019-04-29T15:07:50.631Z,38.14
2019-04-29T15:10:20.480Z,38.32
2019-04-29T15:13:19.665Z,38.13
2019-04-29T15:16:03.550Z,39.24
2019-04-29T15:18:48.877Z,39.59
2019-04-29T15:21:31.992Z,39.92
2019-04-29T15:23:56.230Z,39.75
2019-04-29T15:26:25.791Z,39.52
2019-04-29T15:28:55.310Z,40.01
2019-04-29T15:31:26.046Z,40.22
2019-04-29T15:33:55.517Z,40.18
2019-04-29T15:36:25.337Z,40.28
2019-04-29T15:39:08.853Z,40.25
2019-04-29T15:41:31.098Z,40.41
2019-04-29T15:44:07.181Z,40.93
2019-04-29T15:46:31.397Z,40.82
2019-04-29T15:49:00.757Z,40.82
2019-04-29T15:51:30.552Z,40.88
2019-04-29T15:54:01.096Z,40.98
2019-04-29T15:56:33.731Z,41.08
2019-04-29T15:59:07.714Z,41.21
2019-04-29T16:01:33.488Z,41.06
2019-04-29T16:04:05.862Z,40.83
2019-04-29T16:06:51.294Z,40.77
2019-04-29T16:09:51.107Z,40.75
2019-04-29T16:12:15.765Z,40.81
2019-04-29T16:14:49.049Z,40.82
2019-04-29T16:17:20.550Z,40.38
2019-04-29T16:19:48.282Z,40.34
2019-04-29T16:22:19.768Z,40.02
2019-04-29T16:24:49.338Z,39.85
2019-04-29T16:27:18.921Z,39.99
2019-04-29T16:29:51.758Z,39.94
2019-04-29T16:32:30.423Z,39.89
2019-04-29T16:34:59.954Z,40.05
2019-04-29T16:37:31.803Z,40.06
2019-04-29T16:40:02.579Z,40.36
2019-04-29T16:42:42.980Z,40.31
2019-04-29T16:45:14.371Z,40.65
2019-04-29T16:47:47.459Z,40.59
2019-04-29T16:50:17.407Z,40.98
2019-04-29T16:52:47.043Z,41.30
2019-04-29T16:55:17.914Z,40.92
2019-04-29T16:57:49.840Z,40.59
2019-04-29T17:00:25.565Z,40.15
2019-04-29T17:02:55.710Z,40.33
2019-04-29T17:05:27.113Z,40.65
2019-04-29T17:08:01.181Z,41.17
2019-04-29T17:10:56.244Z,41.33
2019-04-29T17:13:27.995Z,41.51
2019-04-29T17:15:58.387Z,41.74
2019-04-29T17:18:28.477Z,41.86
2019-04-29T17:21:04.722Z,41.85
2019-04-29T17:23:31.619Z,41.88
2019-04-29T17:26:01.302Z,42.17
2019-04-29T17:28:39.247Z,42.29
2019-04-29T17:31:31.285Z,42.40
2019-04-29T17:34:07.413Z,42.60
2019-04-29T17:36:37.952Z,42.71
2019-04-29T17:39:09.246Z,42.55
2019-04-29T17:41:41.568Z,42.55
2019-04-29T17:44:31.277Z,42.64
2019-04-29T17:47:26.022Z,42.57
2019-04-29T17:50:14.804Z,42.55
2019-04-29T17:52:46.791Z,42.69
2019-04-29T17:55:38.629Z,42.69
2019-04-29T17:58:27.654Z,42.52
2019-04-29T18:01:15.517Z,42.47
2019-04-29T18:04:02.284Z,42.48
2019-04-29T18:06:35.906Z,42.61
2019-04-29T18:09:28.831Z,42.85
2019-04-29T18:12:01.282Z,43.03
2019-04-29T18:14:37.857Z,43.41
2019-04-29T18:17:07.837Z,43.60
2019-04-29T18:19:56.302Z,43.42
2019-04-29T18:22:44.745Z,43.39
2019-04-29T18:25:30.998Z,43.33
2019-04-29T18:28:00.011Z,43.50
2019-04-29T18:30:35.856Z,43.66
2019-04-29T18:33:00.609Z,43.98
2019-04-29T18:35:30.872Z,44.14
2019-04-29T18:38:00.745Z,44.08
2019-04-29T18:40:35.482Z,44.29
2019-04-29T18:43:04.905Z,44.46
2019-04-29T18:45:36.786Z,44.84
2019-04-29T18:48:09.011Z,45.68
2019-04-29T18:50:39.679Z,46.11
2019-04-29T18:53:10.369Z,46.54
2019-04-29T18:55:40.747Z,46.84
2019-04-29T18:58:10.432Z,46.85
2019-04-29T19:00:41.084Z,46.82
2019-04-29T19:03:14.883Z,47.17
2019-04-29T19:05:55.148Z,47.22
2019-04-29T19:08:26.680Z,47.32
2019-04-29T19:11:05.095Z,47.49
2019-04-29T19:13:38.126Z,47.97
2019-04-29T19:16:13.076Z,48.45
2019-04-29T19:18:47.440Z,48.49
2019-04-29T19:21:17.415Z,48.66
2019-04-29T19:23:52.575Z,48.90
2019-04-29T19:26:22.335Z,49.09
2019-04-29T19:28:53.555Z,49.03
2019-04-29T19:31:27.159Z,49.21
2019-04-29T19:33:57.691Z,49.12
2019-04-29T19:36:30.803Z,49.18
2019-04-29T19:39:01.228Z,49.03
2019-04-29T19:41:31.662Z,49.14
2019-04-29T19:44:01.588Z,48.97
2019-04-29T19:46:38.486Z,48.95
2019-04-29T19:49:10.035Z,48.98
2019-04-29T19:51:43.686Z,49.24
2019-04-29T19:54:23.787Z,49.44
2019-04-29T19:56:55.623Z,49.40
2019-04-29T19:59:22.876Z,49.32
2019-04-29T20:02:02.134Z,49.56
2019-04-29T20:04:43.577Z,49.61
2019-04-29T20:07:16.906Z,49.40
2019-04-29T20:09:48.294Z,49.22
2019-04-29T20:12:17.948Z,49.11
2019-04-29T20:14:48.132Z,48.96
2019-04-29T20:17:37.226Z,48.89
2019-04-29T20:20:46.298Z,48.55
2019-04-29T20:23:24.877Z,48.24
2019-04-29T20:25:49.632Z,48.19
2019-04-29T20:28:21.303Z,48.00
2019-04-29T20:30:56.990Z,47.99
2019-04-29T20:33:23.091Z,48.01
2019-04-29T20:36:01.998Z,47.99
2019-04-29T20:38:29.956Z,47.93
2019-04-29T20:41:00.710Z,48.03
2019-04-29T20:43:32.382Z,48.06
2019-04-29T20:46:04.549Z,48.04
2019-04-29T20:48:37.132Z,47.95
2019-04-29T20:51:13.563Z,47.80
2019-04-29T20:53:47.996Z,47.95
2019-04-29T20:56:27.532Z,47.90
2019-04-29T20:58:49.488Z,48.14
2019-04-29T21:01:26.419Z,48.63
2019-04-29T21:03:58.057Z,49.34
2019-04-29T21:06:32.700Z,50.12
2019-04-29T21:09:00.685Z,50.36
2019-04-29T21:11:42.724Z,50.42
2019-04-29T21:14:21.071Z,50.80
2019-04-29T21:16:51.853Z,50.88
2019-04-29T21:19:22.200Z,51.06
2019-04-29T21:21:52.016Z,51.32
2019-04-29T21:24:22.141Z,51.56
2019-04-29T21:26:55.050Z,51.84
2019-04-29T21:29:25.601Z,52.21
2019-04-29T21:31:59.800Z,52.80
2019-04-29T21:34:34.558Z,53.34
2019-04-29T21:37:10.805Z,53.59
2019-04-29T21:39:52.334Z,53.65
2019-04-29T21:42:35.402Z,54.31
2019-04-29T21:45:03.532Z,54.91
2019-04-29T21:47:42.693Z,55.46
2019-04-29T21:50:06.681Z,55.69
2019-04-29T21:52:36.250Z,55.77
2019-04-29T21:55:06.586Z,56.00
2019-04-29T21:57:38.441Z,56.13
2019-04-29T22:00:10.320Z,56.01
2019-04-29T22:02:41.501Z,56.11
2019-04-29T22:05:14.903Z,56.26
2019-04-29T22:07:47.489Z,56.51
2019-04-29T22:10:20.002Z,56.79
2019-04-29T22:12:50.951Z,56.76
2019-04-29T22:15:30.612Z,56.73
2019-04-29T22:17:56.398Z,56.65
2019-04-29T22:20:25.738Z,56.75
2019-04-29T22:22:55.861Z,56.74
2019-04-29T22:25:27.988Z,56.48
2019-04-29T22:27:57.748Z,56.35
2019-04-29T22:30:27.528Z,56.48
2019-04-29T22:32:58.704Z,56.52
2019-04-29T22:35:32.808Z,56.36
2019-04-29T22:37:59.648Z,56.73
2019-04-29T22:40:34.119Z,56.56
2019-04-29T22:43:15.003Z,56.55
2019-04-29T22:45:46.067Z,56.57
2019-04-29T22:48:19.607Z,56.45
2019-04-29T22:50:47.490Z,56.19
2019-04-29T22:53:16.971Z,56.19
2019-04-29T22:55:47.171Z,56.52
2019-04-29T22:58:18.937Z,56.72
2019-04-29T23:00:48.529Z,56.57
2019-04-29T23:03:20.315Z,56.79
2019-04-29T23:05:49.846Z,56.68
2019-04-29T23:08:19.666Z,56.58
2019-04-29T23:10:49.511Z,56.60
2019-04-29T23:13:19.591Z,56.84
2019-04-29T23:15:49.231Z,56.95
2019-04-29T23:18:26.680Z,57.05
2019-04-29T23:21:16.275Z,57.10
2019-04-29T23:23:48.849Z,56.99
2019-04-29T23:26:18.124Z,57.22
2019-04-29T23:28:47.641Z,57.10
2019-04-29T23:31:17.292Z,56.95
2019-04-29T23:33:47.133Z,56.74
2019-04-29T23:36:16.632Z,56.74
2019-04-29T23:38:46.400Z,56.64
2019-04-29T23:41:16.468Z,56.34
2019-04-29T23:43:47.707Z,55.98
2019-04-29T23:46:17.512Z,56.11
2019-04-29T23:48:49.845Z,56.50
2019-04-29T23:51:27.433Z,56.39
2019-04-29T23:54:03.000Z,56.66
2019-04-29T23:56:30.015Z,57.17
2019-04-29T23:59:09.921Z,57.72
